sensor_id;sensor_type;location;lat;lon;timestamp;pressure;altitude;pressure_sealevel;temperature
15680;BMP180;15488;48.114;11.532;2024-01-30T00:02:06;96667.00;;;11.70
15680;BMP180;15488;48.114;11.532;2024-01-30T00:04:33;96662.00;;;11.70
15680;BMP180;15488;48.114;11.532;2024-01-30T00:07:01;96668.00;;;11.60
15680;BMP180;15488;48.114;11.532;2024-01-30T00:09:29;96658.00;;;11.60
15680;BMP180;15488;48.114;11.532;2024-01-30T00:11:57;96669.00;;;11.60
15680;BMP180;15488;48.114;11.532;2024-01-30T00:14:25;96662.00;;;11.60
15680;BMP180;15488;48.114;11.532;2024-01-30T00:16:52;96661.00;;;11.60
15680;BMP180;15488;48.114;11.532;2024-01-30T00:19:21;96665.00;;;11.50
15680;BMP180;15488;48.114;11.532;2024-01-30T00:21:49;96670.00;;;11.50
15680;BMP180;15488;48.114;11.532;2024-01-30T00:24:17;96671.00;;;11.50
15680;BMP180;15488;48.114;11.532;2024-01-30T00:26:44;96673.00;;;11.50
15680;BMP180;15488;48.114;11.532;2024-01-30T00:29:12;96675.00;;;11.50
15680;BMP180;15488;48.114;11.532;2024-01-30T00:31:45;96671.00;;;11.40
15680;BMP180;15488;48.114;11.532;2024-01-30T00:34:13;96664.00;;;11.40
15680;BMP180;15488;48.114;11.532;2024-01-30T00:36:41;96674.00;;;11.40
15680;BMP180;15488;48.114;11.532;2024-01-30T00:39:09;96666.00;;;11.40
15680;BMP180;15488;48.114;11.532;2024-01-30T00:41:37;96668.00;;;11.40
15680;BMP180;15488;48.114;11.532;2024-01-30T00:44:05;96666.00;;;11.40
15680;BMP180;15488;48.114;11.532;2024-01-30T00:46:33;96671.00;;;11.30
15680;BMP180;15488;48.114;11.532;2024-01-30T00:49:00;96667.00;;;11.30
15680;BMP180;15488;48.114;11.532;2024-01-30T00:51:28;96675.00;;;11.30
15680;BMP180;15488;48.114;11.532;2024-01-30T00:53:57;96667.00;;;11.30
15680;BMP180;15488;48.114;11.532;2024-01-30T00:56:24;96669.00;;;11.30
15680;BMP180;15488;48.114;11.532;2024-01-30T00:58:52;96680.00;;;11.30
15680;BMP180;15488;48.114;11.532;2024-01-30T01:01:19;96673.00;;;11.20
15680;BMP180;15488;48.114;11.532;2024-01-30T01:03:47;96667.00;;;11.20
15680;BMP180;15488;48.114;11.532;2024-01-30T01:06:15;96676.00;;;11.20
15680;BMP180;15488;48.114;11.532;2024-01-30T01:08:42;96676.00;;;11.20
15680;BMP180;15488;48.114;11.532;2024-01-30T01:11:11;96671.00;;;11.20
15680;BMP180;15488;48.114;11.532;2024-01-30T01:13:39;96677.00;;;11.20
15680;BMP180;15488;48.114;11.532;2024-01-30T01:16:06;96670.00;;;11.10
15680;BMP180;15488;48.114;11.532;2024-01-30T01:18:34;96666.00;;;11.10
15680;BMP180;15488;48.114;11.532;2024-01-30T01:21:01;96674.00;;;11.10
15680;BMP180;15488;48.114;11.532;2024-01-30T01:23:29;96672.00;;;11.10
15680;BMP180;15488;48.114;11.532;2024-01-30T01:25:56;96673.00;;;11.10
15680;BMP180;15488;48.114;11.532;2024-01-30T01:28:27;96675.00;;;11.00
15680;BMP180;15488;48.114;11.532;2024-01-30T01:30:54;96674.00;;;11.00
15680;BMP180;15488;48.114;11.532;2024-01-30T01:33:25;96672.00;;;10.70
15680;BMP180;15488;48.114;11.532;2024-01-30T01:35:52;96668.00;;;11.00
15680;BMP180;15488;48.114;11.532;2024-01-30T01:38:20;96671.00;;;11.00
15680;BMP180;15488;48.114;11.532;2024-01-30T01:40:48;96670.00;;;11.00
15680;BMP180;15488;48.114;11.532;2024-01-30T01:43:15;96665.00;;;11.00
15680;BMP180;15488;48.114;11.532;2024-01-30T01:45:44;96664.00;;;11.00
15680;BMP180;15488;48.114;11.532;2024-01-30T01:48:12;96664.00;;;10.90
15680;BMP180;15488;48.114;11.532;2024-01-30T01:50:41;96667.00;;;10.90
15680;BMP180;15488;48.114;11.532;2024-01-30T01:53:09;96666.00;;;10.90
15680;BMP180;15488;48.114;11.532;2024-01-30T01:55:38;96663.00;;;10.90
15680;BMP180;15488;48.114;11.532;2024-01-30T01:58:05;96661.00;;;10.90
15680;BMP180;15488;48.114;11.532;2024-01-30T02:00:35;96650.00;;;10.90
15680;BMP180;15488;48.114;11.532;2024-01-30T02:03:08;96659.00;;;10.90
15680;BMP180;15488;48.114;11.532;2024-01-30T02:05:38;96661.00;;;10.80
15680;BMP180;15488;48.114;11.532;2024-01-30T02:08:06;96666.00;;;10.80
15680;BMP180;15488;48.114;11.532;2024-01-30T02:10:34;96660.00;;;10.80
15680;BMP180;15488;48.114;11.532;2024-01-30T02:13:01;96658.00;;;10.80
15680;BMP180;15488;48.114;11.532;2024-01-30T02:15:29;96660.00;;;10.80
15680;BMP180;15488;48.114;11.532;2024-01-30T02:17:56;96651.00;;;10.80
15680;BMP180;15488;48.114;11.532;2024-01-30T02:20:25;96657.00;;;10.80
15680;BMP180;15488;48.114;11.532;2024-01-30T02:22:58;96654.00;;;10.80
15680;BMP180;15488;48.114;11.532;2024-01-30T02:25:39;96660.00;;;10.80
15680;BMP180;15488;48.114;11.532;2024-01-30T02:28:10;96669.00;;;10.80
15680;BMP180;15488;48.114;11.532;2024-01-30T02:30:38;96669.00;;;10.80
15680;BMP180;15488;48.114;11.532;2024-01-30T02:33:06;96665.00;;;10.80
15680;BMP180;15488;48.114;11.532;2024-01-30T02:35:33;96663.00;;;10.80
15680;BMP180;15488;48.114;11.532;2024-01-30T02:38:02;96663.00;;;10.80
15680;BMP180;15488;48.114;11.532;2024-01-30T02:40:30;96661.00;;;10.80
15680;BMP180;15488;48.114;11.532;2024-01-30T02:42:59;96663.00;;;10.80
15680;BMP180;15488;48.114;11.532;2024-01-30T02:45:27;96664.00;;;10.70
15680;BMP180;15488;48.114;11.532;2024-01-30T02:47:54;96658.00;;;10.80
15680;BMP180;15488;48.114;11.532;2024-01-30T02:50:22;96658.00;;;10.70
15680;BMP180;15488;48.114;11.532;2024-01-30T02:52:49;96653.00;;;10.70
15680;BMP180;15488;48.114;11.532;2024-01-30T02:55:18;96653.00;;;10.70
15680;BMP180;15488;48.114;11.532;2024-01-30T02:57:46;96649.00;;;10.70
15680;BMP180;15488;48.114;11.532;2024-01-30T03:00:14;96649.00;;;10.70
15680;BMP180;15488;48.114;11.532;2024-01-30T03:02:42;96648.00;;;10.70
15680;BMP180;15488;48.114;11.532;2024-01-30T03:05:09;96645.00;;;10.70
15680;BMP180;15488;48.114;11.532;2024-01-30T03:07:37;96640.00;;;10.70
15680;BMP180;15488;48.114;11.532;2024-01-30T03:10:05;96640.00;;;10.70
15680;BMP180;15488;48.114;11.532;2024-01-30T03:12:34;96638.00;;;10.70
15680;BMP180;15488;48.114;11.532;2024-01-30T03:15:02;96635.00;;;10.70
15680;BMP180;15488;48.114;11.532;2024-01-30T03:17:29;96642.00;;;10.70
15680;BMP180;15488;48.114;11.532;2024-01-30T03:19:57;96634.00;;;10.70
15680;BMP180;15488;48.114;11.532;2024-01-30T03:22:25;96640.00;;;10.70
15680;BMP180;15488;48.114;11.532;2024-01-30T03:24:52;96632.00;;;10.80
15680;BMP180;15488;48.114;11.532;2024-01-30T03:27:20;96633.00;;;10.80
15680;BMP180;15488;48.114;11.532;2024-01-30T03:29:48;96636.00;;;10.80
15680;BMP180;15488;48.114;11.532;2024-01-30T03:32:16;96634.00;;;10.80
15680;BMP180;15488;48.114;11.532;2024-01-30T03:34:44;96637.00;;;10.80
15680;BMP180;15488;48.114;11.532;2024-01-30T03:37:11;96631.00;;;10.80
15680;BMP180;15488;48.114;11.532;2024-01-30T03:39:39;96632.00;;;10.80
15680;BMP180;15488;48.114;11.532;2024-01-30T03:42:06;96632.00;;;10.80
15680;BMP180;15488;48.114;11.532;2024-01-30T03:44:34;96627.00;;;10.80
15680;BMP180;15488;48.114;11.532;2024-01-30T03:47:03;96633.00;;;10.80
15680;BMP180;15488;48.114;11.532;2024-01-30T03:49:30;96626.00;;;10.80
15680;BMP180;15488;48.114;11.532;2024-01-30T03:51:58;96616.00;;;10.90
15680;BMP180;15488;48.114;11.532;2024-01-30T03:54:25;96625.00;;;10.90
15680;BMP180;15488;48.114;11.532;2024-01-30T03:56:53;96625.00;;;10.90
15680;BMP180;15488;48.114;11.532;2024-01-30T03:59:20;96632.00;;;10.90
15680;BMP180;15488;48.114;11.532;2024-01-30T04:01:50;96623.00;;;10.90
15680;BMP180;15488;48.114;11.532;2024-01-30T04:04:19;96633.00;;;10.90
15680;BMP180;15488;48.114;11.532;2024-01-30T04:06:47;96633.00;;;10.90
15680;BMP180;15488;48.114;11.532;2024-01-30T04:09:14;96634.00;;;10.90
15680;BMP180;15488;48.114;11.532;2024-01-30T04:11:42;96639.00;;;10.90
15680;BMP180;15488;48.114;11.532;2024-01-30T04:14:10;96630.00;;;10.90
15680;BMP180;15488;48.114;11.532;2024-01-30T04:16:38;96626.00;;;10.90
15680;BMP180;15488;48.114;11.532;2024-01-30T04:19:05;96625.00;;;10.90
15680;BMP180;15488;48.114;11.532;2024-01-30T04:21:34;96628.00;;;10.90
15680;BMP180;15488;48.114;11.532;2024-01-30T04:24:02;96634.00;;;10.90
15680;BMP180;15488;48.114;11.532;2024-01-30T04:26:29;96630.00;;;11.00
15680;BMP180;15488;48.114;11.532;2024-01-30T04:28:57;96642.00;;;10.90
15680;BMP180;15488;48.114;11.532;2024-01-30T04:31:24;96631.00;;;11.00
15680;BMP180;15488;48.114;11.532;2024-01-30T04:33:52;96630.00;;;10.90
15680;BMP180;15488;48.114;11.532;2024-01-30T04:36:19;96634.00;;;10.90
15680;BMP180;15488;48.114;11.532;2024-01-30T04:38:48;96631.00;;;10.90
15680;BMP180;15488;48.114;11.532;2024-01-30T04:41:16;96637.00;;;10.90
15680;BMP180;15488;48.114;11.532;2024-01-30T04:43:43;96626.00;;;10.90
15680;BMP180;15488;48.114;11.532;2024-01-30T04:46:11;96622.00;;;10.90
15680;BMP180;15488;48.114;11.532;2024-01-30T04:48:38;96621.00;;;10.90
15680;BMP180;15488;48.114;11.532;2024-01-30T04:51:06;96619.00;;;10.90
15680;BMP180;15488;48.114;11.532;2024-01-30T04:53:33;96624.00;;;11.00
15680;BMP180;15488;48.114;11.532;2024-01-30T04:56:03;96625.00;;;11.00
15680;BMP180;15488;48.114;11.532;2024-01-30T04:58:31;96627.00;;;11.00
15680;BMP180;15488;48.114;11.532;2024-01-30T05:00:59;96636.00;;;11.00
15680;BMP180;15488;48.114;11.532;2024-01-30T05:03:26;96628.00;;;11.00
15680;BMP180;15488;48.114;11.532;2024-01-30T05:05:54;96624.00;;;11.00
15680;BMP180;15488;48.114;11.532;2024-01-30T05:08:21;96635.00;;;11.00
15680;BMP180;15488;48.114;11.532;2024-01-30T05:10:49;96638.00;;;11.00
15680;BMP180;15488;48.114;11.532;2024-01-30T05:13:18;96636.00;;;11.00
15680;BMP180;15488;48.114;11.532;2024-01-30T05:15:45;96633.00;;;11.10
15680;BMP180;15488;48.114;11.532;2024-01-30T05:18:13;96639.00;;;11.10
15680;BMP180;15488;48.114;11.532;2024-01-30T05:20:41;96639.00;;;11.10
15680;BMP180;15488;48.114;11.532;2024-01-30T05:23:08;96644.00;;;11.20
15680;BMP180;15488;48.114;11.532;2024-01-30T05:25:36;96646.00;;;11.10
15680;BMP180;15488;48.114;11.532;2024-01-30T05:28:04;96642.00;;;11.20
15680;BMP180;15488;48.114;11.532;2024-01-30T05:30:33;96639.00;;;11.20
15680;BMP180;15488;48.114;11.532;2024-01-30T05:33:00;96634.00;;;11.20
15680;BMP180;15488;48.114;11.532;2024-01-30T05:35:28;96634.00;;;11.20
15680;BMP180;15488;48.114;11.532;2024-01-30T05:37:55;96633.00;;;11.20
15680;BMP180;15488;48.114;11.532;2024-01-30T05:40:23;96640.00;;;11.20
15680;BMP180;15488;48.114;11.532;2024-01-30T05:42:50;96642.00;;;11.20
15680;BMP180;15488;48.114;11.532;2024-01-30T05:45:18;96650.00;;;11.30
15680;BMP180;15488;48.114;11.532;2024-01-30T05:47:47;96644.00;;;11.10
15680;BMP180;15488;48.114;11.532;2024-01-30T05:50:15;96655.00;;;11.10
15680;BMP180;15488;48.114;11.532;2024-01-30T05:52:42;96657.00;;;11.10
15680;BMP180;15488;48.114;11.532;2024-01-30T05:55:10;96657.00;;;11.10
15680;BMP180;15488;48.114;11.532;2024-01-30T05:57:38;96659.00;;;11.10
15680;BMP180;15488;48.114;11.532;2024-01-30T06:00:06;96659.00;;;11.10
15680;BMP180;15488;48.114;11.532;2024-01-30T06:02:34;96657.00;;;11.10
15680;BMP180;15488;48.114;11.532;2024-01-30T06:05:04;96659.00;;;11.00
15680;BMP180;15488;48.114;11.532;2024-01-30T06:07:32;96665.00;;;11.00
15680;BMP180;15488;48.114;11.532;2024-01-30T06:09:59;96666.00;;;11.00
15680;BMP180;15488;48.114;11.532;2024-01-30T06:12:28;96662.00;;;11.00
15680;BMP180;15488;48.114;11.532;2024-01-30T06:14:55;96666.00;;;11.00
15680;BMP180;15488;48.114;11.532;2024-01-30T06:17:24;96657.00;;;11.00
15680;BMP180;15488;48.114;11.532;2024-01-30T06:19:51;96659.00;;;11.00
15680;BMP180;15488;48.114;11.532;2024-01-30T06:22:20;96668.00;;;10.90
15680;BMP180;15488;48.114;11.532;2024-01-30T06:24:48;96669.00;;;10.90
15680;BMP180;15488;48.114;11.532;2024-01-30T06:27:15;96660.00;;;10.90
15680;BMP180;15488;48.114;11.532;2024-01-30T06:29:44;96660.00;;;10.90
15680;BMP180;15488;48.114;11.532;2024-01-30T06:32:11;96661.00;;;10.90
15680;BMP180;15488;48.114;11.532;2024-01-30T06:34:40;96663.00;;;10.90
15680;BMP180;15488;48.114;11.532;2024-01-30T06:37:08;96670.00;;;10.90
15680;BMP180;15488;48.114;11.532;2024-01-30T06:39:37;96671.00;;;10.90
15680;BMP180;15488;48.114;11.532;2024-01-30T06:42:05;96672.00;;;10.80
15680;BMP180;15488;48.114;11.532;2024-01-30T06:44:32;96673.00;;;10.90
15680;BMP180;15488;48.114;11.532;2024-01-30T06:47:00;96677.00;;;10.90
15680;BMP180;15488;48.114;11.532;2024-01-30T06:49:27;96544.00;;;10.80
15680;BMP180;15488;48.114;11.532;2024-01-30T06:51:55;96679.00;;;10.80
15680;BMP180;15488;48.114;11.532;2024-01-30T06:54:23;96684.00;;;10.80
15680;BMP180;15488;48.114;11.532;2024-01-30T06:56:51;96676.00;;;10.80
15680;BMP180;15488;48.114;11.532;2024-01-30T06:59:19;96680.00;;;10.80
15680;BMP180;15488;48.114;11.532;2024-01-30T07:01:46;96681.00;;;10.80
15680;BMP180;15488;48.114;11.532;2024-01-30T07:04:14;96682.00;;;10.80
15680;BMP180;15488;48.114;11.532;2024-01-30T07:06:42;96689.00;;;10.80
15680;BMP180;15488;48.114;11.532;2024-01-30T07:09:09;96681.00;;;10.90
15680;BMP180;15488;48.114;11.532;2024-01-30T07:11:37;96673.00;;;10.90
15680;BMP180;15488;48.114;11.532;2024-01-30T07:14:07;96685.00;;;10.90
15680;BMP180;15488;48.114;11.532;2024-01-30T07:16:35;96679.00;;;10.90
15680;BMP180;15488;48.114;11.532;2024-01-30T07:19:02;96682.00;;;10.90
15680;BMP180;15488;48.114;11.532;2024-01-30T07:21:30;96682.00;;;11.00
15680;BMP180;15488;48.114;11.532;2024-01-30T07:23:57;96689.00;;;11.00
15680;BMP180;15488;48.114;11.532;2024-01-30T07:26:25;96687.00;;;11.00
15680;BMP180;15488;48.114;11.532;2024-01-30T07:28:52;96688.00;;;11.00
15680;BMP180;15488;48.114;11.532;2024-01-30T07:31:21;96686.00;;;11.00
15680;BMP180;15488;48.114;11.532;2024-01-30T07:33:49;96694.00;;;11.00
15680;BMP180;15488;48.114;11.532;2024-01-30T07:36:17;96692.00;;;11.00
15680;BMP180;15488;48.114;11.532;2024-01-30T07:38:44;96690.00;;;11.10
15680;BMP180;15488;48.114;11.532;2024-01-30T07:41:12;96691.00;;;11.10
15680;BMP180;15488;48.114;11.532;2024-01-30T07:43:39;96687.00;;;11.20
15680;BMP180;15488;48.114;11.532;2024-01-30T07:46:07;96686.00;;;11.20
15680;BMP180;15488;48.114;11.532;2024-01-30T07:48:36;96694.00;;;11.20
15680;BMP180;15488;48.114;11.532;2024-01-30T07:51:04;96700.00;;;11.20
15680;BMP180;15488;48.114;11.532;2024-01-30T07:53:31;96696.00;;;11.30
15680;BMP180;15488;48.114;11.532;2024-01-30T07:55:59;96695.00;;;11.30
15680;BMP180;15488;48.114;11.532;2024-01-30T07:58:26;96695.00;;;11.30
15680;BMP180;15488;48.114;11.532;2024-01-30T08:00:54;96702.00;;;11.40
15680;BMP180;15488;48.114;11.532;2024-01-30T08:03:24;96698.00;;;11.40
15680;BMP180;15488;48.114;11.532;2024-01-30T08:06:10;96704.00;;;11.40
15680;BMP180;15488;48.114;11.532;2024-01-30T08:08:41;96700.00;;;11.50
15680;BMP180;15488;48.114;11.532;2024-01-30T08:11:12;96706.00;;;11.50
15680;BMP180;15488;48.114;11.532;2024-01-30T08:14:01;96705.00;;;11.50
15680;BMP180;15488;48.114;11.532;2024-01-30T08:16:43;96700.00;;;11.60
15680;BMP180;15488;48.114;11.532;2024-01-30T08:19:11;96705.00;;;11.60
15680;BMP180;15488;48.114;11.532;2024-01-30T08:21:41;96705.00;;;11.60
15680;BMP180;15488;48.114;11.532;2024-01-30T08:24:08;96716.00;;;11.70
15680;BMP180;15488;48.114;11.532;2024-01-30T08:26:36;96714.00;;;11.70
15680;BMP180;15488;48.114;11.532;2024-01-30T08:29:05;96705.00;;;11.80
15680;BMP180;15488;48.114;11.532;2024-01-30T08:31:32;96710.00;;;11.80
15680;BMP180;15488;48.114;11.532;2024-01-30T08:34:00;96707.00;;;11.90
15680;BMP180;15488;48.114;11.532;2024-01-30T08:36:27;96699.00;;;11.90
15680;BMP180;15488;48.114;11.532;2024-01-30T08:38:56;96701.00;;;12.00
15680;BMP180;15488;48.114;11.532;2024-01-30T08:41:24;96701.00;;;12.10
15680;BMP180;15488;48.114;11.532;2024-01-30T08:43:52;96701.00;;;12.20
15680;BMP180;15488;48.114;11.532;2024-01-30T08:46:20;96700.00;;;12.20
15680;BMP180;15488;48.114;11.532;2024-01-30T08:48:48;96701.00;;;12.30
15680;BMP180;15488;48.114;11.532;2024-01-30T08:51:15;96710.00;;;12.40
15680;BMP180;15488;48.114;11.532;2024-01-30T08:53:43;96704.00;;;12.50
15680;BMP180;15488;48.114;11.532;2024-01-30T08:56:12;96701.00;;;12.50
15680;BMP180;15488;48.114;11.532;2024-01-30T08:58:39;96706.00;;;12.60
15680;BMP180;15488;48.114;11.532;2024-01-30T09:01:07;96711.00;;;12.70
15680;BMP180;15488;48.114;11.532;2024-01-30T09:03:35;96709.00;;;12.70
15680;BMP180;15488;48.114;11.532;2024-01-30T09:06:02;96710.00;;;12.90
15680;BMP180;15488;48.114;11.532;2024-01-30T09:08:30;96707.00;;;12.90
15680;BMP180;15488;48.114;11.532;2024-01-30T09:10:57;96714.00;;;13.00
15680;BMP180;15488;48.114;11.532;2024-01-30T09:13:25;96720.00;;;13.10
15680;BMP180;15488;48.114;11.532;2024-01-30T09:15:53;96720.00;;;13.20
15680;BMP180;15488;48.114;11.532;2024-01-30T09:18:22;96726.00;;;13.20
15680;BMP180;15488;48.114;11.532;2024-01-30T09:20:49;96714.00;;;13.30
15680;BMP180;15488;48.114;11.532;2024-01-30T09:23:17;96724.00;;;13.30
15680;BMP180;15488;48.114;11.532;2024-01-30T09:25:45;96729.00;;;13.40
15680;BMP180;15488;48.114;11.532;2024-01-30T09:28:13;96731.00;;;13.50
15680;BMP180;15488;48.114;11.532;2024-01-30T09:30:42;96724.00;;;13.60
15680;BMP180;15488;48.114;11.532;2024-01-30T09:33:09;96732.00;;;13.70
15680;BMP180;15488;48.114;11.532;2024-01-30T09:35:37;96730.00;;;13.80
15680;BMP180;15488;48.114;11.532;2024-01-30T09:38:05;96725.00;;;13.80
15680;BMP180;15488;48.114;11.532;2024-01-30T09:40:32;96733.00;;;13.90
15680;BMP180;15488;48.114;11.532;2024-01-30T09:43:00;96740.00;;;14.00
15680;BMP180;15488;48.114;11.532;2024-01-30T09:45:28;96727.00;;;14.00
15680;BMP180;15488;48.114;11.532;2024-01-30T09:48:00;96726.00;;;14.10
15680;BMP180;15488;48.114;11.532;2024-01-30T09:50:27;96735.00;;;14.20
15680;BMP180;15488;48.114;11.532;2024-01-30T09:52:56;96739.00;;;14.20
15680;BMP180;15488;48.114;11.532;2024-01-30T09:55:25;96731.00;;;14.30
15680;BMP180;15488;48.114;11.532;2024-01-30T09:57:53;96725.00;;;14.40
15680;BMP180;15488;48.114;11.532;2024-01-30T10:00:21;96733.00;;;14.50
15680;BMP180;15488;48.114;11.532;2024-01-30T10:02:53;96732.00;;;14.60
15680;BMP180;15488;48.114;11.532;2024-01-30T10:05:27;96728.00;;;14.60
15680;BMP180;15488;48.114;11.532;2024-01-30T10:07:56;96730.00;;;14.70
15680;BMP180;15488;48.114;11.532;2024-01-30T10:10:25;96731.00;;;14.80
15680;BMP180;15488;48.114;11.532;2024-01-30T10:12:52;96729.00;;;14.90
15680;BMP180;15488;48.114;11.532;2024-01-30T10:15:21;96730.00;;;15.00
15680;BMP180;15488;48.114;11.532;2024-01-30T10:17:49;96725.00;;;15.00
15680;BMP180;15488;48.114;11.532;2024-01-30T10:20:16;96731.00;;;15.10
15680;BMP180;15488;48.114;11.532;2024-01-30T10:22:46;96732.00;;;15.20
15680;BMP180;15488;48.114;11.532;2024-01-30T10:25:14;96724.00;;;15.30
15680;BMP180;15488;48.114;11.532;2024-01-30T10:27:42;96727.00;;;15.30
15680;BMP180;15488;48.114;11.532;2024-01-30T10:30:10;96715.00;;;15.40
15680;BMP180;15488;48.114;11.532;2024-01-30T10:32:37;96721.00;;;15.50
15680;BMP180;15488;48.114;11.532;2024-01-30T10:35:05;96710.00;;;15.60
15680;BMP180;15488;48.114;11.532;2024-01-30T10:37:33;96712.00;;;15.60
15680;BMP180;15488;48.114;11.532;2024-01-30T10:40:04;96708.00;;;15.70
15680;BMP180;15488;48.114;11.532;2024-01-30T10:42:33;96699.00;;;15.80
15680;BMP180;15488;48.114;11.532;2024-01-30T10:45:08;96702.00;;;15.80
15680;BMP180;15488;48.114;11.532;2024-01-30T10:47:40;96700.00;;;15.90
15680;BMP180;15488;48.114;11.532;2024-01-30T10:50:09;96692.00;;;16.00
15680;BMP180;15488;48.114;11.532;2024-01-30T10:52:37;96692.00;;;16.10
15680;BMP180;15488;48.114;11.532;2024-01-30T10:55:07;96687.00;;;16.10
15680;BMP180;15488;48.114;11.532;2024-01-30T10:57:35;96696.00;;;16.20
15680;BMP180;15488;48.114;11.532;2024-01-30T11:00:06;96687.00;;;16.30
15680;BMP180;15488;48.114;11.532;2024-01-30T11:02:37;96688.00;;;16.30
15680;BMP180;15488;48.114;11.532;2024-01-30T11:05:06;96682.00;;;16.40
15680;BMP180;15488;48.114;11.532;2024-01-30T11:07:34;96678.00;;;16.50
15680;BMP180;15488;48.114;11.532;2024-01-30T11:10:03;96681.00;;;16.50
15680;BMP180;15488;48.114;11.532;2024-01-30T11:12:37;96678.00;;;16.60
15680;BMP180;15488;48.114;11.532;2024-01-30T11:15:08;96674.00;;;16.70
15680;BMP180;15488;48.114;11.532;2024-01-30T11:17:50;96673.00;;;16.70
15680;BMP180;15488;48.114;11.532;2024-01-30T11:20:20;96673.00;;;16.80
15680;BMP180;15488;48.114;11.532;2024-01-30T11:22:50;96667.00;;;16.90
15680;BMP180;15488;48.114;11.532;2024-01-30T11:25:20;96665.00;;;16.90
15680;BMP180;15488;48.114;11.532;2024-01-30T11:27:50;96663.00;;;17.00
15680;BMP180;15488;48.114;11.532;2024-01-30T11:30:22;96655.00;;;17.10
15680;BMP180;15488;48.114;11.532;2024-01-30T11:33:00;96651.00;;;17.10
15680;BMP180;15488;48.114;11.532;2024-01-30T11:35:30;96655.00;;;17.20
15680;BMP180;15488;48.114;11.532;2024-01-30T11:37:59;96656.00;;;17.30
15680;BMP180;15488;48.114;11.532;2024-01-30T11:40:28;96648.00;;;17.30
15680;BMP180;15488;48.114;11.532;2024-01-30T11:42:58;96652.00;;;17.40
15680;BMP180;15488;48.114;11.532;2024-01-30T11:45:26;96652.00;;;17.50
15680;BMP180;15488;48.114;11.532;2024-01-30T11:47:54;96655.00;;;17.60
15680;BMP180;15488;48.114;11.532;2024-01-30T11:50:21;96654.00;;;17.60
15680;BMP180;15488;48.114;11.532;2024-01-30T11:52:49;96654.00;;;17.70
15680;BMP180;15488;48.114;11.532;2024-01-30T11:55:17;96650.00;;;17.80
15680;BMP180;15488;48.114;11.532;2024-01-30T11:57:46;96644.00;;;17.90
15680;BMP180;15488;48.114;11.532;2024-01-30T12:00:19;96636.00;;;17.90
15680;BMP180;15488;48.114;11.532;2024-01-30T12:02:50;96638.00;;;18.00
15680;BMP180;15488;48.114;11.532;2024-01-30T12:05:19;96642.00;;;18.10
15680;BMP180;15488;48.114;11.532;2024-01-30T12:07:47;96639.00;;;18.10
15680;BMP180;15488;48.114;11.532;2024-01-30T12:10:15;96630.00;;;18.20
15680;BMP180;15488;48.114;11.532;2024-01-30T12:12:45;96625.00;;;18.30
15680;BMP180;15488;48.114;11.532;2024-01-30T12:15:13;96630.00;;;18.40
15680;BMP180;15488;48.114;11.532;2024-01-30T12:17:43;96625.00;;;18.40
15680;BMP180;15488;48.114;11.532;2024-01-30T12:20:12;96625.00;;;18.50
15680;BMP180;15488;48.114;11.532;2024-01-30T12:22:41;96619.00;;;18.60
15680;BMP180;15488;48.114;11.532;2024-01-30T12:25:09;96616.00;;;18.60
15680;BMP180;15488;48.114;11.532;2024-01-30T12:27:37;96617.00;;;18.70
15680;BMP180;15488;48.114;11.532;2024-01-30T12:30:06;96617.00;;;18.80
15680;BMP180;15488;48.114;11.532;2024-01-30T12:32:35;96619.00;;;18.80
15680;BMP180;15488;48.114;11.532;2024-01-30T12:35:07;96611.00;;;18.80
15680;BMP180;15488;48.114;11.532;2024-01-30T12:37:35;96607.00;;;18.90
15680;BMP180;15488;48.114;11.532;2024-01-30T12:40:04;96613.00;;;18.90
15680;BMP180;15488;48.114;11.532;2024-01-30T12:42:32;96603.00;;;19.00
15680;BMP180;15488;48.114;11.532;2024-01-30T12:45:00;96602.00;;;19.00
15680;BMP180;15488;48.114;11.532;2024-01-30T12:47:27;96603.00;;;19.10
15680;BMP180;15488;48.114;11.532;2024-01-30T12:49:55;96597.00;;;19.20
15680;BMP180;15488;48.114;11.532;2024-01-30T12:52:24;96600.00;;;19.20
15680;BMP180;15488;48.114;11.532;2024-01-30T12:54:52;96591.00;;;19.30
15680;BMP180;15488;48.114;11.532;2024-01-30T12:57:20;96596.00;;;19.30
15680;BMP180;15488;48.114;11.532;2024-01-30T12:59:48;96595.00;;;19.40
15680;BMP180;15488;48.114;11.532;2024-01-30T13:02:16;96591.00;;;19.40
15680;BMP180;15488;48.114;11.532;2024-01-30T13:04:43;96582.00;;;19.50
15680;BMP180;15488;48.114;11.532;2024-01-30T13:07:11;96587.00;;;19.50
15680;BMP180;15488;48.114;11.532;2024-01-30T13:09:40;96586.00;;;19.60
15680;BMP180;15488;48.114;11.532;2024-01-30T13:12:08;96584.00;;;19.70
15680;BMP180;15488;48.114;11.532;2024-01-30T13:14:35;96537.00;;;19.70
15680;BMP180;15488;48.114;11.532;2024-01-30T13:17:03;96592.00;;;19.80
15680;BMP180;15488;48.114;11.532;2024-01-30T13:19:31;96587.00;;;19.80
15680;BMP180;15488;48.114;11.532;2024-01-30T13:21:58;96596.00;;;19.90
15680;BMP180;15488;48.114;11.532;2024-01-30T13:24:26;96596.00;;;19.90
15680;BMP180;15488;48.114;11.532;2024-01-30T13:26:55;96601.00;;;20.00
15680;BMP180;15488;48.114;11.532;2024-01-30T13:29:22;96602.00;;;20.00
15680;BMP180;15488;48.114;11.532;2024-01-30T13:31:50;96596.00;;;20.10
15680;BMP180;15488;48.114;11.532;2024-01-30T13:34:17;96594.00;;;20.20
15680;BMP180;15488;48.114;11.532;2024-01-30T13:36:45;96592.00;;;20.20
15680;BMP180;15488;48.114;11.532;2024-01-30T13:39:13;96600.00;;;20.30
15680;BMP180;15488;48.114;11.532;2024-01-30T13:41:42;96600.00;;;20.30
15680;BMP180;15488;48.114;11.532;2024-01-30T13:44:11;96598.00;;;20.40
15680;BMP180;15488;48.114;11.532;2024-01-30T13:46:38;96600.00;;;20.50
15680;BMP180;15488;48.114;11.532;2024-01-30T13:49:06;96604.00;;;20.60
15680;BMP180;15488;48.114;11.532;2024-01-30T13:51:33;96606.00;;;20.70
15680;BMP180;15488;48.114;11.532;2024-01-30T13:54:01;96601.00;;;20.80
15680;BMP180;15488;48.114;11.532;2024-01-30T13:56:29;96600.00;;;20.80
15680;BMP180;15488;48.114;11.532;2024-01-30T13:58:56;96605.00;;;20.90
15680;BMP180;15488;48.114;11.532;2024-01-30T14:01:25;96607.00;;;20.90
15680;BMP180;15488;48.114;11.532;2024-01-30T14:03:53;96610.00;;;21.00